createdAt,value
2022-09-17T09:34:03.197Z,92.50
2022-09-17T09:36:32.888Z,92.80
2022-09-17T09:39:24.828Z,89.00
2022-09-17T09:42:16.842Z,88.90
2022-09-17T09:44:43.521Z,88.90
2022-09-17T09:47:22.168Z,89.60
2022-09-17T09:50:11.968Z,89.90
2022-09-17T09:52:51.446Z,90.10
2022-09-17T09:55:49.205Z,91.20
2022-09-17T09:58:35.208Z,91.20
2022-09-17T10:01:02.892Z,90.90
2022-09-17T10:03:32.729Z,91.80
2022-09-17T10:06:05.692Z,91.70
2022-09-17T10:08:37.514Z,91.80
2022-09-17T10:11:09.157Z,89.70
2022-09-17T10:13:37.321Z,88.80
2022-09-17T10:16:24.281Z,87.30
2022-09-17T10:19:07.417Z,85.50
2022-09-17T10:21:42.392Z,85.60
2022-09-17T10:24:27.755Z,85.50
2022-09-17T10:27:03.481Z,87.40
2022-09-17T10:29:30.909Z,87.00
2022-09-17T10:31:58.873Z,86.70
2022-09-17T10:34:30.946Z,84.80
2022-09-17T10:36:58.476Z,85.30
2022-09-17T10:39:44.149Z,85.30
2022-09-17T10:42:18.540Z,83.90
2022-09-17T10:44:56.567Z,83.40
2022-09-17T10:47:29.064Z,83.00
2022-09-17T10:50:18.078Z,84.30
2022-09-17T10:52:55.533Z,85.50
2022-09-17T10:55:45.243Z,84.80
2022-09-17T10:58:30.353Z,89.80
2022-09-17T11:01:25.322Z,85.00
2022-09-17T11:04:41.749Z,85.10
2022-09-17T11:07:29.519Z,85.80
2022-09-17T11:10:25.110Z,83.90
2022-09-17T11:13:31.970Z,83.70
2022-09-17T11:16:25.621Z,85.50
2022-09-17T11:19:11.803Z,84.20
2022-09-17T11:21:38.890Z,85.10
2022-09-17T11:24:20.645Z,83.90
2022-09-17T11:27:16.838Z,87.80
2022-09-17T11:30:15.488Z,91.00
2022-09-17T11:32:54.659Z,93.40
2022-09-17T11:35:30.948Z,95.10
2022-09-17T11:38:19.464Z,94.60
2022-09-17T11:41:02.729Z,92.50
2022-09-17T11:43:44.799Z,91.10
2022-09-17T11:46:20.442Z,90.20
2022-09-17T11:48:59.461Z,91.00
2022-09-17T11:51:40.678Z,91.60
2022-09-17T11:54:19.636Z,90.70
2022-09-17T11:56:52.983Z,90.60
2022-09-17T11:59:38.311Z,91.60
2022-09-17T12:02:10.790Z,89.80
2022-09-17T12:04:54.084Z,87.50
2022-09-17T12:07:54.645Z,86.30
2022-09-17T12:10:54.552Z,85.20
2022-09-17T12:13:40.559Z,86.00
2022-09-17T12:16:13.339Z,86.20
2022-09-17T12:18:46.189Z,87.90
2022-09-17T12:21:19.520Z,86.70
2022-09-17T12:24:10.811Z,86.40
2022-09-17T12:27:13.814Z,87.60
2022-09-17T12:30:16.459Z,88.30
2022-09-17T12:33:17.274Z,87.10
2022-09-17T12:36:08.447Z,88.00
2022-09-17T12:38:53.715Z,90.20
2022-09-17T12:41:56.893Z,90.40
2022-09-17T12:44:45.715Z,91.20
2022-09-17T12:47:37.234Z,93.00
2022-09-17T12:50:27.980Z,92.90
2022-09-17T12:53:20.723Z,93.50
2022-09-17T12:56:03.307Z,93.40
2022-09-17T12:59:08.455Z,93.70
2022-09-17T13:01:57.985Z,93.40
2022-09-17T13:05:01.077Z,94.50
2022-09-17T13:07:57.326Z,94.10
2022-09-17T13:10:35.554Z,93.30
2022-09-17T13:13:34.436Z,93.70
2022-09-17T13:16:20.867Z,95.50
2022-09-17T13:19:05.561Z,97.80
2022-09-17T13:21:51.466Z,97.90
2022-09-17T13:24:28.601Z,98.60
2022-09-17T13:26:56.505Z,99.90
2022-09-17T13:29:45.277Z,99.90
2022-09-17T13:32:37.174Z,99.90
2022-09-17T13:35:09.734Z,99.90
2022-09-17T13:37:40.296Z,99.90
2022-09-17T13:40:27.876Z,99.90
2022-09-17T13:42:59.217Z,99.90
2022-09-17T13:45:26.756Z,99.90
2022-09-17T13:48:00.322Z,99.90
2022-09-17T13:50:57.016Z,99.90
2022-09-17T13:53:27.906Z,99.90
2022-09-17T13:55:55.939Z,99.90
2022-09-17T13:58:31.716Z,99.90
2022-09-17T14:01:12.994Z,99.90
2022-09-17T14:03:45.614Z,99.90
2022-09-17T14:06:14.604Z,99.90
2022-09-17T14:08:54.485Z,98.90
2022-09-17T14:11:28.276Z,98.40
2022-09-17T14:14:15.513Z,99.20
2022-09-17T14:16:48.275Z,99.90
2022-09-17T14:19:36.888Z,97.20
2022-09-17T14:22:15.958Z,97.10
2022-09-17T14:24:42.586Z,97.20
2022-09-17T14:27:43.261Z,96.70
2022-09-17T14:30:18.089Z,94.90
2022-09-17T14:32:53.754Z,95.80
2022-09-17T14:35:43.943Z,96.00
2022-09-17T14:38:35.064Z,94.60
2022-09-17T14:41:18.723Z,92.80
2022-09-17T14:43:48.547Z,92.90
2022-09-17T14:46:30.889Z,96.80
2022-09-17T14:49:22.826Z,99.90
2022-09-17T14:51:54.131Z,99.90
2022-09-17T14:54:20.769Z,99.90
2022-09-17T14:56:47.487Z,99.90
2022-09-17T14:59:31.213Z,99.90
2022-09-17T15:01:58.168Z,99.90
2022-09-17T15:04:26.979Z,99.90
2022-09-17T15:07:06.310Z,99.90
2022-09-17T15:09:33.054Z,99.90
2022-09-17T15:12:00.751Z,99.90
2022-09-17T15:14:30.495Z,99.90
2022-09-17T15:17:00.013Z,99.90
2022-09-17T15:19:48.045Z,99.90
2022-09-17T15:22:26.666Z,99.90
2022-09-17T15:24:58.325Z,99.90
2022-09-17T15:27:37.999Z,99.90
2022-09-17T15:30:21.005Z,99.90
2022-09-17T15:32:52.103Z,99.90
2022-09-17T15:35:27.995Z,99.90
2022-09-17T15:38:21.120Z,99.90
2022-09-17T15:40:43.631Z,99.90
2022-09-17T15:43:27.334Z,99.90
2022-09-17T15:45:55.373Z,99.90
2022-09-17T15:52:41.953Z,99.90
2022-09-17T16:00:01.270Z,99.90
2022-09-17T16:06:16.733Z,99.90
2022-09-17T16:09:54.621Z,99.90
2022-09-17T16:12:39.950Z,99.90
2022-09-17T16:15:30.375Z,99.90
2022-09-17T16:18:05.023Z,99.90
2022-09-17T16:20:32.514Z,99.90
2022-09-17T16:25:53.976Z,99.90
2022-09-17T16:28:44.512Z,99.10
2022-09-17T16:31:17.294Z,98.60
2022-09-17T16:34:01.314Z,97.80
2022-09-17T16:36:45.518Z,97.80
2022-09-17T16:39:29.355Z,97.80
2022-09-17T16:42:55.997Z,97.00
2022-09-17T16:45:42.894Z,97.30
2022-09-17T16:48:32.088Z,97.50
2022-09-17T16:51:38.641Z,96.80
2022-09-17T16:54:31.656Z,97.50
2022-09-17T16:57:30.035Z,96.10
2022-09-17T17:00:39.297Z,96.70
2022-09-17T17:03:30.178Z,97.00
2022-09-17T17:06:01.784Z,96.00
2022-09-17T17:08:57.374Z,96.30
2022-09-17T17:11:49.004Z,97.10
2022-09-17T17:14:52.406Z,97.50
2022-09-17T17:17:29.605Z,97.90
2022-09-17T17:20:25.611Z,98.00
2022-09-17T17:23:23.632Z,98.60
2022-09-17T17:26:09.949Z,99.20
2022-09-17T17:28:48.531Z,98.90
2022-09-17T17:31:40.619Z,99.20
2022-09-17T17:34:15.242Z,97.70
2022-09-17T17:37:20.769Z,97.60
2022-09-17T17:40:25.427Z,97.80
2022-09-17T17:46:19.047Z,97.70
2022-09-17T17:49:03.563Z,97.10
2022-09-17T17:51:41.497Z,97.20
2022-09-17T17:54:35.328Z,97.70
2022-09-17T17:57:27.442Z,97.60
2022-09-17T18:03:15.462Z,97.40
2022-09-17T18:06:03.709Z,97.80
2022-09-17T18:08:39.089Z,97.80
2022-09-17T18:11:08.210Z,97.50
2022-09-17T18:13:36.838Z,98.00
2022-09-17T18:16:05.265Z,97.60
2022-09-17T18:18:42.130Z,98.00
2022-09-17T18:21:20.771Z,98.60
2022-09-17T18:23:49.030Z,98.30
2022-09-17T18:26:18.104Z,98.20
2022-09-17T18:28:45.415Z,98.10
2022-09-17T18:31:32.915Z,98.30
2022-09-17T18:34:20.596Z,98.70
2022-09-17T18:36:50.995Z,98.90
2022-09-17T18:39:57.528Z,98.60
2022-09-17T18:42:05.228Z,98.60
2022-09-17T18:44:31.992Z,98.80
2022-09-17T18:46:58.785Z,99.30
2022-09-17T18:49:25.603Z,98.90
2022-09-17T18:51:52.363Z,99.10
2022-09-17T18:54:19.094Z,99.60
2022-09-17T18:56:45.853Z,99.50
2022-09-17T18:59:12.822Z,99.70
2022-09-17T19:01:39.802Z,99.30
2022-09-17T19:04:09.994Z,99.70
2022-09-17T19:06:36.808Z,99.60
2022-09-17T19:09:05.331Z,99.90
2022-09-17T19:11:32.050Z,99.90
2022-09-17T19:13:58.945Z,99.90
2022-09-17T19:16:25.798Z,99.90
2022-09-17T19:18:52.688Z,99.90
2022-09-17T19:21:23.245Z,99.90
2022-09-17T19:23:51.921Z,99.90
2022-09-17T19:26:22.195Z,99.90
2022-09-17T19:28:52.535Z,99.90
2022-09-17T19:31:19.289Z,99.90
2022-09-17T19:33:46.732Z,99.90
2022-09-17T19:36:15.762Z,99.90
2022-09-17T19:38:43.257Z,99.90
2022-09-17T19:41:13.066Z,99.90
2022-09-17T19:43:40.344Z,99.90
2022-09-17T19:46:10.147Z,99.90
2022-09-17T19:48:37.079Z,99.90
2022-09-17T19:51:05.031Z,99.90
2022-09-17T19:53:32.890Z,99.90
2022-09-17T19:56:02.807Z,99.90
2022-09-17T19:58:29.528Z,99.90
2022-09-17T20:00:59.797Z,99.90
2022-09-17T20:03:27.095Z,99.90
2022-09-17T20:06:06.833Z,99.90
2022-09-17T20:08:37.987Z,99.90
2022-09-17T20:11:09.757Z,99.90
2022-09-17T20:13:37.326Z,99.90
2022-09-17T20:16:14.523Z,99.90
2022-09-17T20:18:41.704Z,99.90
2022-09-17T20:21:12.560Z,99.90
2022-09-17T20:23:39.448Z,99.90
2022-09-17T20:26:06.834Z,99.90
2022-09-17T20:28:34.402Z,99.90
2022-09-17T20:31:05.366Z,99.90
2022-09-17T20:33:32.743Z,99.90
2022-09-17T20:36:01.204Z,99.90
2022-09-17T20:41:16.052Z,99.90
2022-09-17T20:43:45.403Z,99.90
2022-09-17T20:46:12.725Z,99.90
2022-09-17T20:48:40.456Z,99.50
2022-09-17T20:51:10.677Z,99.80
2022-09-17T20:53:38.354Z,99.70
2022-09-17T20:56:10.888Z,99.90
2022-09-17T20:58:45.239Z,99.90
2022-09-17T21:01:20.590Z,99.90
2022-09-17T21:03:50.582Z,99.90
2022-09-17T21:06:18.375Z,99.90
2022-09-17T21:08:45.663Z,99.90
2022-09-17T21:11:13.277Z,99.90
2022-09-17T21:13:40.600Z,99.90
2022-09-17T21:16:08.225Z,99.90
2022-09-17T21:18:39.434Z,99.90
2022-09-17T21:21:09.662Z,99.90
2022-09-17T21:23:37.789Z,99.90
2022-09-17T21:26:14.606Z,99.90
2022-09-17T21:28:42.771Z,99.90
2022-09-17T21:31:17.170Z,99.90
2022-09-17T21:33:45.058Z,99.90
2022-09-17T21:36:23.333Z,99.90
2022-09-17T21:38:51.872Z,99.90
2022-09-17T21:41:19.615Z,99.90
2022-09-17T21:43:46.776Z,99.90
2022-09-17T21:46:16.441Z,99.90
2022-09-17T21:53:15.851Z,99.90
2022-09-17T22:03:46.968Z,99.90
2022-09-17T22:19:36.215Z,99.90
2022-09-17T22:43:16.254Z,99.90
2022-09-17T22:47:29.445Z,99.90
2022-09-17T22:51:20.507Z,99.90
2022-09-17T23:01:54.584Z,99.90
2022-09-17T23:09:02.372Z,99.90
2022-09-17T23:12:20.672Z,99.90
2022-09-17T23:21:59.315Z,99.90
2022-09-17T23:25:21.646Z,99.90
2022-09-17T23:28:11.733Z,99.90
2022-09-17T23:31:22.360Z,99.90
2022-09-17T23:37:48.771Z,99.90
2022-09-17T23:40:37.987Z,99.90
2022-09-17T23:43:13.798Z,99.90
2022-09-17T23:46:08.524Z,99.90
2022-09-17T23:48:58.021Z,99.90
2022-09-17T23:51:56.906Z,99.90
2022-09-17T23:58:03.351Z,99.90
